createdAt,value
2023-03-20T00:01:53.579Z,67.00
2023-03-20T00:04:20.396Z,66.90
2023-03-20T00:06:47.237Z,66.90
2023-03-20T00:09:14.043Z,66.00
2023-03-20T00:11:48.369Z,65.90
2023-03-20T00:14:17.256Z,66.30
2023-03-20T00:16:52.057Z,66.70
2023-03-20T00:19:23.288Z,66.60
2023-03-20T00:21:51.439Z,65.80
2023-03-20T00:24:18.522Z,65.90
2023-03-20T00:26:47.331Z,65.80
2023-03-20T00:29:21.744Z,66.10
2023-03-20T00:31:49.065Z,65.90
2023-03-20T00:34:19.254Z,65.70
2023-03-20T00:36:46.451Z,65.60
2023-03-20T00:39:13.345Z,65.50
2023-03-20T00:41:44.593Z,65.40
2023-03-20T00:44:26.239Z,65.30
2023-03-20T00:46:59.211Z,65.30
2023-03-20T00:49:32.557Z,65.90
2023-03-20T00:52:01.281Z,65.30
2023-03-20T00:54:28.918Z,65.80
2023-03-20T00:57:02.671Z,65.30
2023-03-20T00:59:34.926Z,65.70
2023-03-20T01:02:02.892Z,65.00
2023-03-20T01:04:40.898Z,65.20
2023-03-20T01:07:12.489Z,65.20
2023-03-20T01:09:39.272Z,65.00
2023-03-20T01:12:08.009Z,65.10
2023-03-20T01:14:35.338Z,64.50
2023-03-20T01:17:02.051Z,63.90
2023-03-20T01:19:28.906Z,63.90
2023-03-20T01:21:56.261Z,63.60
2023-03-20T01:24:23.135Z,64.20
2023-03-20T01:26:51.760Z,63.70
2023-03-20T01:29:25.012Z,63.60
2023-03-20T01:31:52.771Z,63.80
2023-03-20T01:34:20.969Z,63.60
2023-03-20T01:36:56.134Z,64.10
2023-03-20T01:39:29.086Z,63.60
2023-03-20T01:41:56.031Z,64.20
2023-03-20T01:44:27.300Z,64.10
2023-03-20T01:46:55.397Z,63.70
2023-03-20T01:49:22.165Z,64.10
2023-03-20T01:51:51.097Z,63.70
2023-03-20T01:54:27.445Z,63.70
2023-03-20T01:57:02.930Z,62.80
2023-03-20T01:59:47.041Z,62.00
2023-03-20T02:02:17.417Z,62.00
2023-03-20T02:04:47.996Z,62.60
2023-03-20T02:07:18.333Z,62.90
2023-03-20T02:09:47.841Z,62.90
2023-03-20T02:12:15.700Z,63.10
2023-03-20T02:14:45.751Z,62.90
2023-03-20T02:17:13.079Z,63.50
2023-03-20T02:19:48.549Z,63.00
2023-03-20T02:22:33.220Z,63.20
2023-03-20T02:25:15.678Z,62.80
2023-03-20T02:28:01.781Z,63.00
2023-03-20T02:31:13.311Z,62.20
2023-03-20T02:33:58.397Z,63.00
2023-03-20T02:36:40.938Z,63.00
2023-03-20T02:39:44.554Z,62.00
2023-03-20T02:42:34.586Z,61.70
2023-03-20T02:45:21.576Z,62.40
2023-03-20T02:48:03.387Z,62.20
2023-03-20T02:50:54.063Z,62.50
2023-03-20T02:53:39.880Z,62.60
2023-03-20T02:56:27.701Z,62.30
2023-03-20T02:58:57.440Z,62.60
2023-03-20T03:01:33.969Z,62.50
2023-03-20T03:04:05.948Z,62.10
2023-03-20T03:06:36.452Z,62.30
2023-03-20T03:09:18.885Z,62.40
2023-03-20T03:11:50.235Z,61.40
2023-03-20T03:14:41.644Z,62.70
2023-03-20T03:17:10.234Z,62.80
2023-03-20T03:19:39.499Z,62.20
2023-03-20T03:22:06.495Z,62.30
2023-03-20T03:24:45.293Z,62.80
2023-03-20T03:27:20.244Z,62.80
2023-03-20T03:29:54.687Z,63.00
2023-03-20T03:32:26.515Z,63.50
2023-03-20T03:34:54.483Z,63.80
2023-03-20T03:37:53.166Z,64.30
2023-03-20T03:40:25.156Z,64.60
2023-03-20T03:43:30.853Z,65.30
2023-03-20T03:46:03.063Z,65.10
2023-03-20T03:48:41.227Z,65.10
2023-03-20T03:51:13.012Z,65.50
2023-03-20T03:53:48.424Z,66.30
2023-03-20T03:56:20.329Z,66.40
2023-03-20T03:58:53.411Z,66.10
2023-03-20T04:01:22.404Z,66.10
2023-03-20T04:04:01.128Z,65.60
2023-03-20T04:06:28.483Z,66.00
2023-03-20T04:08:55.685Z,66.10
2023-03-20T04:11:24.625Z,66.40
2023-03-20T04:13:52.465Z,67.50
2023-03-20T04:16:23.251Z,66.50
2023-03-20T04:18:50.689Z,66.10
2023-03-20T04:21:18.655Z,67.20
2023-03-20T04:23:45.777Z,67.80
2023-03-20T04:26:12.726Z,67.50
2023-03-20T04:28:39.479Z,67.70
2023-03-20T04:31:06.584Z,67.90
2023-03-20T04:33:33.585Z,68.20
2023-03-20T04:36:00.585Z,67.90
2023-03-20T04:38:27.498Z,68.60
2023-03-20T04:40:54.305Z,69.20
2023-03-20T04:43:21.197Z,70.00
2023-03-20T04:45:48.223Z,70.30
2023-03-20T04:48:15.372Z,70.00
2023-03-20T04:50:42.402Z,69.00
2023-03-20T04:53:09.173Z,69.30
2023-03-20T04:55:36.161Z,69.30
2023-03-20T04:58:03.357Z,69.40
2023-03-20T05:00:30.201Z,69.20
2023-03-20T05:02:57.665Z,69.70
2023-03-20T05:05:24.746Z,69.60
2023-03-20T05:07:52.454Z,70.20
2023-03-20T05:10:19.733Z,69.80
2023-03-20T05:12:47.480Z,69.40
2023-03-20T05:15:14.632Z,70.00
2023-03-20T05:17:41.674Z,69.80
2023-03-20T05:20:09.291Z,70.00
2023-03-20T05:22:36.183Z,69.30
2023-03-20T05:25:03.541Z,69.60
2023-03-20T05:27:30.630Z,70.20
2023-03-20T05:29:57.386Z,70.10
2023-03-20T05:32:24.145Z,69.90
2023-03-20T05:34:50.830Z,70.10
2023-03-20T05:37:17.849Z,70.00
2023-03-20T05:39:44.581Z,69.20
2023-03-20T05:42:11.766Z,69.10
2023-03-20T05:44:38.583Z,68.40
2023-03-20T05:47:05.629Z,68.90
2023-03-20T05:49:32.465Z,68.90
2023-03-20T05:51:59.290Z,68.90
2023-03-20T05:54:26.064Z,68.60
2023-03-20T05:56:52.836Z,68.90
2023-03-20T05:59:19.615Z,69.30
2023-03-20T06:01:46.528Z,69.60
2023-03-20T06:04:13.254Z,69.70
2023-03-20T06:06:41.778Z,70.40
2023-03-20T06:09:08.536Z,70.50
2023-03-20T06:11:37.490Z,70.50
2023-03-20T06:14:04.543Z,70.20
2023-03-20T06:16:31.272Z,68.60
2023-03-20T06:18:58.395Z,67.20
2023-03-20T06:21:25.344Z,66.70
2023-03-20T06:23:52.161Z,66.40
2023-03-20T06:26:19.028Z,66.30
2023-03-20T06:28:45.923Z,66.00
2023-03-20T06:31:13.420Z,65.90
2023-03-20T06:33:41.028Z,65.50
2023-03-20T06:36:08.146Z,66.00
2023-03-20T06:38:34.981Z,65.50
2023-03-20T06:41:01.727Z,65.90
2023-03-20T06:43:28.495Z,65.50
2023-03-20T06:45:55.317Z,64.20
2023-03-20T06:48:22.424Z,63.30
2023-03-20T06:50:50.294Z,62.30
2023-03-20T06:53:17.457Z,62.50
2023-03-20T06:55:47.914Z,62.30
2023-03-20T06:58:15.132Z,61.40
2023-03-20T07:00:42.265Z,61.10
2023-03-20T07:03:09.164Z,59.80
2023-03-20T07:05:38.608Z,58.60
2023-03-20T07:08:07.399Z,57.40
2023-03-20T07:10:34.834Z,57.80
2023-03-20T07:13:01.980Z,58.00
2023-03-20T07:15:30.206Z,57.60
2023-03-20T07:17:57.376Z,57.10
2023-03-20T07:20:24.166Z,56.80
2023-03-20T07:22:51.004Z,56.20
2023-03-20T07:25:20.580Z,56.30
2023-03-20T07:27:53.016Z,56.80
2023-03-20T07:30:19.731Z,56.50
2023-03-20T07:32:46.787Z,54.70
2023-03-20T07:35:13.725Z,54.40
2023-03-20T07:37:41.199Z,52.50
2023-03-20T07:40:09.631Z,51.60
2023-03-20T07:42:36.697Z,50.30
2023-03-20T07:45:03.813Z,49.30
2023-03-20T07:47:30.684Z,49.60
2023-03-20T07:49:57.473Z,49.30
2023-03-20T07:52:24.256Z,49.60
2023-03-20T07:54:51.166Z,50.00
2023-03-20T07:57:18.356Z,50.00
2023-03-20T07:59:45.502Z,49.90
2023-03-20T08:02:16.735Z,49.30
2023-03-20T08:04:44.761Z,50.30
2023-03-20T08:07:11.925Z,48.80
2023-03-20T08:09:39.081Z,47.70
2023-03-20T08:12:06.472Z,46.90
2023-03-20T08:14:33.387Z,47.00
2023-03-20T08:17:13.568Z,46.60
2023-03-20T08:19:41.931Z,45.30
2023-03-20T08:22:08.796Z,45.10
2023-03-20T08:24:35.612Z,44.40
2023-03-20T08:27:02.782Z,43.80
2023-03-20T08:29:29.824Z,43.80
2023-03-20T08:31:57.899Z,44.00
2023-03-20T08:34:24.760Z,44.20
2023-03-20T08:36:52.733Z,44.10
2023-03-20T08:39:19.553Z,43.10
2023-03-20T08:41:47.528Z,42.40
2023-03-20T08:44:14.335Z,43.40
2023-03-20T08:46:41.215Z,43.40
2023-03-20T08:49:07.932Z,42.40
2023-03-20T08:51:34.804Z,43.20
2023-03-20T08:54:01.646Z,43.60
2023-03-20T08:56:28.440Z,42.00
2023-03-20T08:58:56.227Z,42.30
2023-03-20T09:01:23.223Z,42.00
2023-03-20T09:03:50.531Z,42.00
2023-03-20T09:06:17.280Z,41.60
2023-03-20T09:08:44.086Z,40.50
2023-03-20T09:11:10.969Z,40.80
2023-03-20T09:13:37.994Z,40.50
2023-03-20T09:16:05.523Z,40.30
2023-03-20T09:18:32.579Z,40.50
2023-03-20T09:20:59.401Z,40.50
2023-03-20T09:23:26.335Z,39.90
2023-03-20T09:25:53.169Z,39.30
2023-03-20T09:28:19.999Z,38.80
2023-03-20T09:30:46.928Z,38.40
2023-03-20T09:33:15.003Z,39.20
2023-03-20T09:35:43.688Z,38.20
2023-03-20T09:38:12.311Z,38.80
2023-03-20T09:40:53.278Z,38.60
2023-03-20T09:43:29.424Z,37.70
2023-03-20T09:46:02.912Z,36.10
2023-03-20T09:48:46.058Z,36.10
2023-03-20T09:52:10.043Z,35.50
2023-03-20T09:54:53.708Z,34.20
2023-03-20T09:57:26.642Z,35.10
2023-03-20T10:00:03.697Z,34.50
2023-03-20T10:02:46.548Z,33.70
2023-03-20T10:05:23.073Z,32.90
2023-03-20T10:07:50.645Z,32.70
2023-03-20T10:10:20.671Z,33.20
2023-03-20T10:13:05.497Z,33.00
2023-03-20T10:15:55.703Z,32.60
2023-03-20T10:18:28.162Z,32.00
2023-03-20T10:21:00.182Z,30.20
2023-03-20T10:23:46.997Z,31.00
2023-03-20T10:26:17.871Z,31.10
2023-03-20T10:29:34.418Z,30.90
2023-03-20T10:32:22.190Z,30.90
2023-03-20T10:35:03.168Z,30.90
2023-03-20T10:38:05.431Z,31.30
2023-03-20T10:40:36.248Z,31.40
2023-03-20T10:43:19.817Z,31.20
2023-03-20T10:45:54.222Z,30.90
2023-03-20T10:48:32.268Z,30.80
2023-03-20T10:51:02.239Z,31.20
2023-03-20T10:53:43.367Z,31.20
2023-03-20T10:56:19.689Z,31.50
2023-03-20T10:58:50.428Z,31.20
2023-03-20T11:01:18.272Z,30.80
2023-03-20T11:03:45.118Z,30.60
2023-03-20T11:06:20.546Z,30.00
2023-03-20T11:08:53.146Z,30.70
2023-03-20T11:11:28.466Z,30.80
2023-03-20T11:13:55.577Z,31.50
2023-03-20T11:16:29.949Z,31.80
2023-03-20T11:19:05.947Z,31.10
2023-03-20T11:21:35.073Z,31.80
2023-03-20T11:24:02.759Z,32.60
2023-03-20T11:26:42.071Z,33.00
2023-03-20T11:29:20.311Z,33.10
2023-03-20T11:31:47.091Z,33.00
2023-03-20T11:34:16.604Z,33.10
2023-03-20T11:37:09.649Z,33.60
2023-03-20T11:39:38.342Z,34.10
2023-03-20T11:42:23.586Z,33.90
2023-03-20T11:45:01.454Z,33.80
2023-03-20T11:47:32.639Z,33.10
2023-03-20T11:50:02.596Z,32.90
2023-03-20T11:52:38.552Z,33.00
2023-03-20T11:55:28.592Z,32.40
2023-03-20T11:58:00.308Z,32.20
2023-03-20T12:00:35.374Z,30.50
2023-03-20T12:03:02.638Z,30.70
2023-03-20T12:05:31.417Z,30.90
2023-03-20T12:08:03.846Z,31.30
2023-03-20T12:10:37.205Z,30.80
2023-03-20T12:13:20.352Z,30.30
2023-03-20T12:15:52.178Z,30.00
2023-03-20T12:18:43.881Z,30.20
2023-03-20T12:21:23.457Z,30.00
2023-03-20T12:24:01.856Z,29.60
2023-03-20T12:26:50.273Z,29.30
2023-03-20T12:29:31.704Z,29.60
2023-03-20T12:32:23.447Z,29.20
2023-03-20T12:35:25.093Z,29.40
2023-03-20T12:37:52.714Z,29.60
2023-03-20T12:40:23.203Z,29.40
2023-03-20T12:43:05.133Z,29.30
2023-03-20T12:45:44.873Z,29.10
2023-03-20T12:48:30.244Z,29.30
2023-03-20T12:51:13.574Z,28.90
2023-03-20T12:54:13.875Z,29.00
2023-03-20T12:56:55.750Z,28.60
2023-03-20T12:59:29.248Z,28.60
2023-03-20T13:02:04.044Z,28.50
2023-03-20T13:04:52.362Z,28.70
2023-03-20T13:07:22.262Z,29.10
2023-03-20T13:10:02.434Z,29.60
2023-03-20T13:12:38.084Z,30.00
2023-03-20T13:15:49.049Z,30.50
2023-03-20T13:18:46.048Z,31.00
2023-03-20T13:21:25.754Z,31.50
2023-03-20T13:24:04.581Z,31.70
2023-03-20T13:27:12.959Z,32.00
2023-03-20T13:29:54.600Z,32.20
2023-03-20T13:32:33.044Z,32.60
2023-03-20T13:35:28.217Z,32.40
2023-03-20T13:37:59.248Z,32.70
2023-03-20T13:40:32.649Z,33.40
2023-03-20T13:43:02.398Z,34.60
2023-03-20T13:45:38.889Z,34.60
2023-03-20T13:48:23.991Z,34.00
2023-03-20T13:51:27.024Z,33.90
2023-03-20T13:53:59.470Z,33.90
2023-03-20T13:56:26.225Z,33.90
2023-03-20T13:59:11.280Z,33.90
2023-03-20T14:01:55.319Z,33.70
2023-03-20T14:04:24.033Z,33.20
2023-03-20T14:06:59.318Z,33.30
2023-03-20T14:09:37.505Z,33.20
2023-03-20T14:12:12.388Z,33.10
2023-03-20T14:14:57.629Z,33.10
2023-03-20T14:17:29.910Z,33.00
2023-03-20T14:19:57.838Z,32.60
2023-03-20T14:22:34.273Z,32.50
2023-03-20T14:25:08.345Z,32.30
2023-03-20T14:27:44.542Z,32.50
2023-03-20T14:30:30.355Z,32.90
2023-03-20T14:33:14.968Z,33.30
2023-03-20T14:36:10.594Z,33.70
2023-03-20T14:38:55.084Z,33.90
2023-03-20T14:41:46.646Z,34.30
2023-03-20T14:44:49.864Z,34.50
2023-03-20T14:47:41.160Z,35.10
2023-03-20T14:50:39.120Z,35.00
2023-03-20T14:53:21.850Z,34.90
2023-03-20T14:55:51.524Z,34.60
2023-03-20T14:58:43.715Z,34.50
2023-03-20T15:01:22.582Z,34.50
2023-03-20T15:03:53.697Z,34.30
2023-03-20T15:06:22.489Z,33.90
2023-03-20T15:08:54.097Z,34.10
2023-03-20T15:11:22.461Z,34.50
2023-03-20T15:13:50.516Z,34.00
2023-03-20T15:16:17.373Z,34.30
2023-03-20T15:18:47.377Z,33.70
2023-03-20T15:21:17.082Z,33.40
2023-03-20T15:23:45.401Z,33.50
2023-03-20T15:26:15.429Z,33.20
2023-03-20T15:28:44.747Z,32.40
2023-03-20T15:31:27.501Z,32.60
2023-03-20T15:33:55.746Z,32.60
2023-03-20T15:36:29.084Z,32.50
2023-03-20T15:39:27.553Z,33.20
2023-03-20T15:42:01.377Z,32.80
2023-03-20T15:44:35.674Z,33.20
2023-03-20T15:47:20.715Z,33.20
2023-03-20T15:49:53.992Z,32.20
2023-03-20T15:52:39.911Z,32.10
2023-03-20T15:55:13.426Z,32.50
2023-03-20T15:57:43.956Z,32.50
2023-03-20T16:00:24.641Z,32.50
2023-03-20T16:02:51.849Z,32.70
2023-03-20T16:05:22.636Z,32.70
2023-03-20T16:07:49.517Z,34.10
2023-03-20T16:10:17.917Z,32.30
2023-03-20T16:12:54.573Z,31.40
2023-03-20T16:15:25.723Z,30.70
2023-03-20T16:17:56.873Z,30.30
2023-03-20T16:20:25.493Z,30.20
2023-03-20T16:22:55.365Z,30.40
2023-03-20T16:25:22.378Z,30.20
2023-03-20T16:27:51.749Z,30.30
2023-03-20T16:30:23.778Z,30.20
2023-03-20T16:33:04.646Z,30.40
2023-03-20T16:35:39.794Z,30.50
2023-03-20T16:38:27.998Z,30.40
2023-03-20T16:40:58.413Z,29.90
2023-03-20T16:43:32.154Z,30.00
2023-03-20T16:46:05.077Z,30.30
2023-03-20T16:48:39.556Z,30.60
2023-03-20T16:51:31.751Z,30.80
2023-03-20T16:54:03.282Z,31.10
2023-03-20T16:56:38.371Z,31.00
2023-03-20T16:59:18.365Z,31.00
2023-03-20T17:01:48.500Z,31.30
2023-03-20T17:04:20.506Z,31.60
2023-03-20T17:06:53.703Z,31.60
2023-03-20T17:09:24.092Z,31.70
2023-03-20T17:12:15.078Z,31.80
2023-03-20T17:14:41.805Z,31.70
2023-03-20T17:17:18.898Z,31.90
2023-03-20T17:19:47.536Z,32.20
2023-03-20T17:22:23.032Z,32.40
2023-03-20T17:24:50.616Z,32.80
2023-03-20T17:27:18.903Z,33.20
2023-03-20T17:29:46.968Z,33.40
2023-03-20T17:32:16.776Z,33.40
2023-03-20T17:34:44.105Z,33.70
2023-03-20T17:37:16.726Z,33.90
2023-03-20T17:39:43.578Z,34.10
2023-03-20T17:42:21.125Z,34.20
2023-03-20T17:44:48.364Z,34.20
2023-03-20T17:47:16.962Z,34.50
2023-03-20T17:49:44.669Z,34.70
2023-03-20T17:52:29.700Z,34.80
2023-03-20T17:54:56.588Z,34.70
2023-03-20T17:57:40.884Z,34.80
2023-03-20T18:00:14.902Z,34.80
2023-03-20T18:02:41.750Z,35.00
2023-03-20T18:05:09.002Z,35.10
2023-03-20T18:07:35.940Z,35.20
2023-03-20T18:10:03.358Z,35.40
2023-03-20T18:12:30.555Z,35.50
2023-03-20T18:14:57.396Z,35.60
2023-03-20T18:17:24.177Z,35.60
2023-03-20T18:19:51.294Z,35.60
2023-03-20T18:22:18.021Z,35.80
2023-03-20T18:24:45.637Z,35.80
2023-03-20T18:27:12.565Z,35.80
2023-03-20T18:29:39.423Z,35.70
2023-03-20T18:32:06.291Z,36.20
2023-03-20T18:34:33.353Z,36.30
2023-03-20T18:37:00.254Z,36.40
2023-03-20T18:39:27.582Z,36.50
2023-03-20T18:41:54.523Z,36.60
2023-03-20T18:44:21.935Z,36.70
2023-03-20T18:46:48.799Z,36.90
2023-03-20T18:49:17.457Z,36.90
2023-03-20T18:51:45.166Z,37.00
2023-03-20T18:54:12.102Z,38.00
2023-03-20T18:56:38.857Z,37.50
2023-03-20T18:59:07.969Z,37.50
2023-03-20T19:01:36.071Z,37.80
2023-03-20T19:04:03.352Z,37.80
2023-03-20T19:06:32.209Z,38.10
2023-03-20T19:08:59.460Z,38.50
2023-03-20T19:11:26.369Z,38.50
2023-03-20T19:13:53.959Z,38.40
2023-03-20T19:16:26.755Z,38.50
2023-03-20T19:18:55.534Z,38.70
2023-03-20T19:21:29.115Z,38.70
2023-03-20T19:24:06.237Z,38.80
2023-03-20T19:26:34.799Z,39.00
2023-03-20T19:29:03.430Z,39.40
2023-03-20T19:31:30.423Z,39.50
2023-03-20T19:33:57.268Z,39.50
2023-03-20T19:36:28.064Z,39.70
2023-03-20T19:38:56.177Z,39.80
2023-03-20T19:41:23.447Z,40.00
2023-03-20T19:43:53.562Z,39.90
2023-03-20T19:46:38.706Z,39.70
2023-03-20T19:49:06.845Z,39.70
2023-03-20T19:51:34.055Z,39.60
2023-03-20T19:54:01.040Z,39.60
2023-03-20T19:56:27.814Z,39.90
2023-03-20T19:58:54.929Z,39.60
2023-03-20T20:01:25.172Z,39.70
2023-03-20T20:03:53.852Z,39.60
2023-03-20T20:06:22.545Z,39.40
2023-03-20T20:08:50.674Z,39.40
2023-03-20T20:11:19.472Z,39.40
2023-03-20T20:14:07.186Z,39.50
2023-03-20T20:16:34.850Z,39.40
2023-03-20T20:19:01.974Z,39.50
2023-03-20T20:24:16.402Z,39.60
2023-03-20T20:26:53.370Z,39.80
2023-03-20T20:29:21.363Z,40.10
2023-03-20T20:31:48.234Z,40.90
2023-03-20T20:35:14.917Z,41.30
2023-03-20T20:37:47.522Z,42.00
2023-03-20T20:39:49.298Z,43.40
2023-03-20T20:42:17.184Z,44.30
2023-03-20T20:44:44.336Z,44.90
2023-03-20T20:47:11.444Z,44.90
2023-03-20T20:49:38.282Z,44.90
2023-03-20T20:52:06.055Z,45.20
2023-03-20T20:54:34.123Z,45.60
2023-03-20T20:57:01.344Z,47.00
2023-03-20T20:59:28.396Z,47.30
2023-03-20T21:01:55.573Z,47.90
2023-03-20T21:04:22.482Z,47.80
2023-03-20T21:09:36.655Z,48.20
2023-03-20T21:12:04.133Z,48.30
2023-03-20T21:14:31.289Z,48.30
2023-03-20T21:17:01.727Z,48.50
2023-03-20T21:19:30.636Z,48.80
2023-03-20T21:21:57.394Z,48.50
2023-03-20T21:24:34.080Z,48.80
2023-03-20T21:27:11.407Z,49.00
2023-03-20T21:29:39.144Z,49.00
2023-03-20T21:32:06.648Z,49.00
2023-03-20T21:34:34.101Z,49.20
2023-03-20T21:37:23.861Z,49.30
2023-03-20T21:39:51.581Z,49.60
2023-03-20T21:42:19.157Z,49.40
2023-03-20T21:45:35.654Z,49.50
2023-03-20T21:48:24.628Z,49.80
2023-03-20T21:59:27.123Z,50.00
2023-03-20T22:01:58.667Z,50.10
2023-03-20T22:05:10.838Z,50.20
2023-03-20T22:10:34.505Z,50.30
2023-03-20T22:13:21.019Z,50.60
2023-03-20T22:16:03.485Z,51.00
2023-03-20T22:24:57.035Z,50.80
2023-03-20T22:30:26.735Z,50.90
2023-03-20T22:36:06.826Z,51.30
2023-03-20T22:38:55.119Z,51.10
2023-03-20T22:41:43.180Z,51.10
2023-03-20T22:44:35.428Z,51.20
2023-03-20T22:46:44.843Z,51.30
2023-03-20T22:49:12.637Z,52.20
2023-03-20T22:51:52.148Z,51.70
2023-03-20T22:54:26.481Z,51.70
2023-03-20T22:56:53.475Z,52.10
2023-03-20T22:59:20.189Z,52.70
2023-03-20T23:01:46.999Z,52.40
2023-03-20T23:04:13.877Z,52.30
2023-03-20T23:06:41.275Z,51.80
2023-03-20T23:09:15.405Z,51.40
2023-03-20T23:11:43.003Z,51.70
2023-03-20T23:14:20.444Z,52.10
2023-03-20T23:16:48.925Z,52.40
2023-03-20T23:19:16.440Z,52.70
2023-03-20T23:21:43.210Z,52.80
2023-03-20T23:24:10.009Z,52.70
2023-03-20T23:26:36.797Z,52.50
2023-03-20T23:29:03.780Z,52.30
2023-03-20T23:31:30.788Z,52.20
2023-03-20T23:33:58.250Z,51.90
2023-03-20T23:36:36.461Z,52.00
2023-03-20T23:39:09.398Z,52.00
2023-03-20T23:42:05.062Z,52.20
2023-03-20T23:44:23.496Z,52.00
2023-03-20T23:46:50.588Z,52.80
2023-03-20T23:49:17.517Z,52.70
2023-03-20T23:51:44.506Z,52.70
2023-03-20T23:54:11.743Z,53.10
2023-03-20T23:56:39.398Z,53.80
2023-03-20T23:59:18.635Z,54.00
